createdAt,value
2022-08-28T00:02:28.599Z,101807.47
2022-08-28T00:07:32.528Z,101802.72
2022-08-28T00:12:38.578Z,101793.84
2022-08-28T00:17:42.371Z,101803.28
2022-08-28T00:22:47.116Z,101805.06
2022-08-28T00:27:57.340Z,101801.56
2022-08-28T00:33:03.251Z,101811.97
2022-08-28T00:38:07.061Z,101812.59
2022-08-28T00:43:26.231Z,101817.63
2022-08-28T00:48:30.007Z,101813.00
2022-08-28T00:53:33.895Z,101815.25
2022-08-28T00:58:39.915Z,101817.72
2022-08-28T01:03:44.304Z,101823.69
2022-08-28T01:08:50.598Z,101820.00
2022-08-28T01:13:57.505Z,101830.28
2022-08-28T01:19:10.153Z,101834.38
2022-08-28T01:24:16.058Z,101832.44
2022-08-28T01:29:20.827Z,101829.97
2022-08-28T01:34:24.961Z,101836.00
2022-08-28T01:39:30.371Z,101833.97
2022-08-28T01:44:34.123Z,101841.41
2022-08-28T01:49:37.848Z,101838.34
2022-08-28T01:54:43.139Z,101843.41
2022-08-28T01:59:47.733Z,101852.00
2022-08-28T02:04:52.593Z,101851.81
2022-08-28T02:09:57.723Z,101845.47
2022-08-28T02:15:01.489Z,101848.78
2022-08-28T02:20:07.428Z,101851.28
2022-08-28T02:25:13.883Z,101856.06
2022-08-28T02:30:18.692Z,101849.63
2022-08-28T02:35:25.343Z,101854.53
2022-08-28T02:40:31.649Z,101853.44
2022-08-28T02:45:35.728Z,101855.69
2022-08-28T02:50:39.444Z,101858.00
2022-08-28T02:55:45.105Z,101856.94
2022-08-28T03:00:49.353Z,101858.59
2022-08-28T03:05:53.258Z,101857.31
2022-08-28T03:10:58.347Z,101859.94
2022-08-28T03:16:02.309Z,101850.28
2022-08-28T03:21:06.227Z,101857.28
2022-08-28T03:26:14.363Z,101851.72
2022-08-28T03:31:20.038Z,101853.53
2022-08-28T03:36:26.178Z,101867.31
2022-08-28T03:41:32.646Z,101876.16
2022-08-28T03:46:36.446Z,101875.34
2022-08-28T03:51:41.945Z,101874.63
2022-08-28T03:56:47.430Z,101877.09
2022-08-28T04:01:51.674Z,101871.78
2022-08-28T04:06:55.361Z,101881.75
2022-08-28T04:12:00.525Z,101882.34
2022-08-28T04:17:04.455Z,101880.47
2022-08-28T04:22:08.329Z,101885.50
2022-08-28T04:27:14.700Z,101876.72
2022-08-28T04:32:18.411Z,101880.03
2022-08-28T04:37:22.769Z,101893.81
2022-08-28T04:42:31.268Z,101897.97
2022-08-28T04:47:37.075Z,101897.84
2022-08-28T04:52:43.158Z,101904.59
2022-08-28T04:57:48.179Z,101900.81
2022-08-28T05:02:51.918Z,101899.81
2022-08-28T05:07:55.608Z,101910.97
2022-08-28T05:13:00.663Z,101914.22
2022-08-28T05:18:04.434Z,101919.22
2022-08-28T05:23:09.278Z,101922.56
2022-08-28T05:28:16.820Z,101929.47
2022-08-28T05:33:21.134Z,101933.91
2022-08-28T05:38:24.897Z,101939.09
2022-08-28T05:43:31.435Z,101941.69
2022-08-28T05:48:37.028Z,101931.28
2022-08-28T05:53:44.856Z,101942.09
2022-08-28T05:58:50.213Z,101936.19
2022-08-28T06:03:56.908Z,101944.41
2022-08-28T06:09:02.448Z,101947.31
2022-08-28T06:14:10.979Z,101946.59
2022-08-28T06:19:15.475Z,101959.19
2022-08-28T06:24:19.956Z,101956.84
2022-08-28T06:29:25.083Z,101950.41
2022-08-28T06:34:29.982Z,101949.09
2022-08-28T06:39:33.986Z,101953.16
2022-08-28T06:44:39.263Z,101962.25
2022-08-28T06:49:43.075Z,101962.88
2022-08-28T06:54:55.611Z,101971.09
2022-08-28T07:00:01.326Z,101961.97
2022-08-28T07:05:08.718Z,101966.88
2022-08-28T07:10:12.516Z,101974.22
2022-08-28T07:15:18.157Z,101972.94
2022-08-28T07:20:22.734Z,101975.16
2022-08-28T07:25:27.350Z,101972.13
2022-08-28T07:30:32.452Z,101978.59
2022-08-28T07:35:36.168Z,101983.50
2022-08-28T07:40:39.906Z,101979.69
2022-08-28T07:45:45.560Z,101986.47
2022-08-28T07:50:49.428Z,101991.44
2022-08-28T07:55:53.168Z,101998.22
2022-08-28T08:00:59.160Z,102003.94
2022-08-28T08:06:06.318Z,102001.91
2022-08-28T08:11:16.591Z,102008.66
2022-08-28T08:16:24.023Z,102015.44
2022-08-28T08:21:30.459Z,102012.41
2022-08-28T08:26:35.098Z,102015.69
2022-08-28T08:31:40.952Z,102029.75
2022-08-28T08:36:47.796Z,102016.03
2022-08-28T08:41:55.301Z,102021.94
2022-08-28T08:47:13.795Z,102013.56
2022-08-28T08:52:29.145Z,102028.59
2022-08-28T08:57:34.292Z,102013.28
2022-08-28T09:02:44.561Z,102011.94
2022-08-28T09:07:56.825Z,102010.72
2022-08-28T09:13:07.413Z,102014.41
2022-08-28T09:18:19.400Z,102004.94
2022-08-28T09:23:24.004Z,102015.50
2022-08-28T09:28:31.485Z,102014.94
2022-08-28T09:33:42.089Z,102017.22
2022-08-28T09:38:45.797Z,102014.66
2022-08-28T09:43:49.745Z,102018.66
2022-08-28T09:49:09.289Z,102016.34
2022-08-28T09:54:20.285Z,102018.28
2022-08-28T09:59:25.936Z,102013.16
2022-08-28T10:04:50.779Z,102014.69
2022-08-28T10:10:02.248Z,102010.00
2022-08-28T10:15:19.036Z,102015.06
2022-08-28T10:20:35.203Z,102014.38
2022-08-28T10:25:44.562Z,102006.37
2022-08-28T10:30:59.487Z,102013.97
2022-08-28T10:36:34.167Z,102008.38
2022-08-28T10:41:44.202Z,102001.78
2022-08-28T10:46:51.739Z,101997.50
2022-08-28T10:52:02.112Z,102009.16
2022-08-28T10:57:15.879Z,102006.91
2022-08-28T11:02:22.742Z,102009.78
2022-08-28T11:07:33.917Z,102011.66
2022-08-28T11:12:44.188Z,102010.59
2022-08-28T11:17:48.652Z,102004.22
2022-08-28T11:22:59.679Z,101992.28
2022-08-28T11:28:18.492Z,101996.94
2022-08-28T11:33:42.182Z,102013.94
2022-08-28T11:39:21.771Z,102005.78
2022-08-28T11:44:29.440Z,102006.25
2022-08-28T11:49:43.163Z,102019.22
2022-08-28T11:54:57.476Z,102012.44
2022-08-28T12:00:08.959Z,102014.25
2022-08-28T12:05:50.455Z,102008.91
2022-08-28T12:10:59.471Z,102013.47
2022-08-28T12:16:08.114Z,102010.81
2022-08-28T12:21:18.396Z,101993.31
2022-08-28T12:26:27.540Z,102001.00
2022-08-28T12:32:14.473Z,102000.69
2022-08-28T12:37:51.503Z,101992.44
2022-08-28T12:43:00.494Z,101992.81
2022-08-28T12:48:14.091Z,101982.13
2022-08-28T12:53:19.532Z,101992.06
2022-08-28T12:58:32.975Z,101983.97
2022-08-28T13:03:43.688Z,101984.91
2022-08-28T13:08:50.041Z,101984.66
2022-08-28T13:13:55.098Z,101975.13
2022-08-28T13:19:13.858Z,101986.47
2022-08-28T13:24:41.357Z,101971.84
2022-08-28T13:29:58.099Z,101972.25
2022-08-28T13:35:08.616Z,101973.03
2022-08-28T13:40:38.204Z,101962.78
2022-08-28T13:45:43.377Z,101959.09
2022-08-28T13:50:49.171Z,101958.84
2022-08-28T13:55:52.946Z,101955.84
2022-08-28T14:00:58.385Z,101957.31
2022-08-28T14:06:02.864Z,101955.87
2022-08-28T14:11:07.238Z,101945.37
2022-08-28T14:16:13.877Z,101950.09
2022-08-28T14:21:18.472Z,101948.13
2022-08-28T14:26:22.210Z,101942.91
2022-08-28T14:31:27.679Z,101947.03
2022-08-28T14:36:32.528Z,101938.41
2022-08-28T14:41:36.827Z,101936.97
2022-08-28T14:46:44.585Z,101936.94
2022-08-28T14:51:49.196Z,101946.81
2022-08-28T14:56:53.556Z,101935.00
2022-08-28T15:02:00.304Z,101928.47
2022-08-28T15:07:06.508Z,101928.25
2022-08-28T15:12:11.254Z,101923.72
2022-08-28T15:17:16.481Z,101924.78
2022-08-28T15:22:27.285Z,101918.09
2022-08-28T15:27:31.286Z,101923.56
2022-08-28T15:32:36.635Z,101920.81
2022-08-28T15:37:40.385Z,101909.59
2022-08-28T15:42:44.627Z,101905.69
2022-08-28T15:47:49.780Z,101909.06
2022-08-28T15:52:53.583Z,101910.94
2022-08-28T15:57:57.954Z,101912.19
2022-08-28T16:03:03.416Z,101924.09
2022-08-28T16:08:07.219Z,101920.63
2022-08-28T16:13:11.046Z,101921.09
2022-08-28T16:18:17.372Z,101923.53
2022-08-28T16:23:21.552Z,101917.63
2022-08-28T16:28:25.989Z,101922.78
2022-08-28T16:33:32.592Z,101907.72
2022-08-28T16:38:39.006Z,101920.56
2022-08-28T16:43:43.430Z,101915.81
2022-08-28T16:48:49.120Z,101921.97
2022-08-28T16:53:53.027Z,101937.16
2022-08-28T16:58:57.145Z,101929.75
2022-08-28T17:04:02.419Z,101929.59
2022-08-28T17:09:06.292Z,101921.06
2022-08-28T17:14:12.031Z,101925.56
2022-08-28T17:19:17.513Z,101925.81
2022-08-28T17:24:21.619Z,101918.81
2022-08-28T17:29:25.475Z,101926.88
2022-08-28T17:34:30.907Z,101925.16
2022-08-28T17:39:34.668Z,101926.06
2022-08-28T17:44:38.623Z,101925.16
2022-08-28T17:49:44.488Z,101941.00
2022-08-28T17:54:48.362Z,101933.94
2022-08-28T17:59:52.668Z,101938.31
2022-08-28T18:04:58.088Z,101936.53
2022-08-28T18:10:07.093Z,101934.66
2022-08-28T18:15:13.719Z,101929.25
2022-08-28T18:20:19.596Z,101926.56
2022-08-28T18:25:41.684Z,101931.72
2022-08-28T18:30:49.065Z,101940.38
2022-08-28T18:35:55.082Z,101937.63
2022-08-28T18:40:59.900Z,101946.22
2022-08-28T18:46:05.231Z,101956.78
2022-08-28T18:51:12.258Z,101958.41
2022-08-28T18:56:16.961Z,101957.16
2022-08-28T19:01:21.068Z,101967.47
2022-08-28T19:06:26.355Z,101967.41
2022-08-28T19:11:31.453Z,101975.09
2022-08-28T19:16:35.347Z,101985.53
2022-08-28T19:21:40.597Z,101989.84
2022-08-28T19:26:45.213Z,101986.94
2022-08-28T19:31:48.959Z,101993.00
2022-08-28T19:36:54.203Z,101995.50
2022-08-28T19:41:57.952Z,102013.69
2022-08-28T19:47:01.976Z,102007.34
2022-08-28T19:52:07.244Z,102018.59
2022-08-28T19:57:11.161Z,102018.25
2022-08-28T20:02:15.059Z,102024.22
2022-08-28T20:07:20.278Z,102027.47
2022-08-28T20:12:24.733Z,102026.44
2022-08-28T20:17:28.590Z,102036.69
2022-08-28T20:22:33.680Z,102031.25
2022-08-28T20:27:37.845Z,102039.63
2022-08-28T20:32:41.962Z,102052.53
2022-08-28T20:37:47.511Z,102039.22
2022-08-28T20:42:51.232Z,102039.87
2022-08-28T20:47:55.247Z,102048.31
2022-08-28T20:53:02.613Z,102048.97
2022-08-28T20:58:06.450Z,102059.34
2022-08-28T21:03:12.198Z,102066.81
2022-08-28T21:08:17.718Z,102063.19
2022-08-28T21:13:21.774Z,102069.16
2022-08-28T21:18:25.535Z,102068.19
2022-08-28T21:23:33.191Z,102071.28
2022-08-28T21:28:37.041Z,102075.59
2022-08-28T21:33:43.282Z,102070.03
2022-08-28T21:38:48.502Z,102069.84
2022-08-28T21:43:52.211Z,102070.50
2022-08-28T21:48:56.293Z,102077.31
2022-08-28T21:54:01.370Z,102070.06
2022-08-28T21:59:05.290Z,102082.97
2022-08-28T22:04:09.087Z,102088.78
2022-08-28T22:09:14.165Z,102075.31
2022-08-28T22:14:17.857Z,102085.59
2022-08-28T22:19:21.591Z,102086.94
2022-08-28T22:24:26.644Z,102080.53
2022-08-28T22:29:36.395Z,102083.00
2022-08-28T22:34:42.745Z,102083.72
2022-08-28T22:39:48.006Z,102099.88
2022-08-28T22:44:51.756Z,102095.16
2022-08-28T22:49:58.315Z,102089.66
2022-08-28T22:55:03.434Z,102088.59
2022-08-28T23:00:13.817Z,102093.69
2022-08-28T23:05:17.993Z,102095.25
2022-08-28T23:10:42.142Z,102094.06
2022-08-28T23:15:48.536Z,102098.25
2022-08-28T23:20:52.812Z,102106.69
2022-08-28T23:25:57.922Z,102105.59
2022-08-28T23:31:01.680Z,102101.06
2022-08-28T23:36:06.247Z,102097.31
2022-08-28T23:41:12.141Z,102091.03
2022-08-28T23:46:17.283Z,102090.87
2022-08-28T23:51:22.102Z,102088.78
2022-08-28T23:56:28.204Z,102085.06
